In Rescue
 
Open Full Screen Window  High Contrast Mode
July 22, 2019 10:59 PM CDT
Weather Information
Wind Direction
  ---
Wind Speed
  00 kt (0 mph)
Wind Gust
  00 kt (0 mph)
Altimeter
30.22 in
Visibility
10 SM
Temperature
16° C
61° F
Dewpoint
14° C
57° F
Humidity
88%
1hr Rain Fall
00.00 in.
24hr Rain Fall
00.00 in.
Sky Condition
Clear
VFR

METAR KOWA 230359Z AUTO 00000KT 10SM CLR 16/14 A3022 RMK AO2

FAA Disclaimer: The data displayed is for advisory purposes only and is not to be used for flight planning or operations.